createdAt,value
2022-11-13T00:01:26.666Z,96903.97
2022-11-13T00:04:12.633Z,96910.56
2022-11-13T00:06:59.603Z,96905.47
2022-11-13T00:09:45.317Z,96906.38
2022-11-13T00:12:31.224Z,96906.81
2022-11-13T00:15:17.317Z,96907.28
2022-11-13T00:18:03.522Z,96900.56
2022-11-13T00:20:49.277Z,96898.75
2022-11-13T00:23:36.213Z,96905.47
2022-11-13T00:26:30.571Z,96905.47
2022-11-13T00:29:16.298Z,96896.50
2022-11-13T00:32:02.029Z,96899.09
2022-11-13T00:34:48.507Z,96882.72
2022-11-13T00:37:34.461Z,96891.34
2022-11-13T00:40:20.369Z,96885.19
2022-11-13T00:43:06.185Z,96877.78
2022-11-13T00:45:52.485Z,96877.31
2022-11-13T00:48:38.209Z,96866.94
2022-11-13T00:51:24.305Z,96865.59
2022-11-13T00:54:10.147Z,96875.81
2022-11-13T00:56:55.938Z,96870.78
2022-11-13T00:59:41.580Z,96864.28
2022-11-13T01:02:27.281Z,96863.97
2022-11-13T01:05:12.870Z,96863.97
2022-11-13T01:07:58.709Z,96858.44
2022-11-13T01:10:53.393Z,96865.09
2022-11-13T01:13:41.201Z,96862.13
2022-11-13T01:16:29.942Z,96860.72
2022-11-13T01:19:15.569Z,96860.56
2022-11-13T01:22:01.578Z,96849.81
2022-11-13T01:24:47.393Z,96851.41
2022-11-13T01:27:36.201Z,96850.25
2022-11-13T01:30:21.985Z,96855.16
2022-11-13T01:33:07.948Z,96849.75
2022-11-13T01:35:59.251Z,96856.84
2022-11-13T01:38:44.878Z,96848.31
2022-11-13T01:41:33.642Z,96843.28
2022-11-13T01:44:19.874Z,96839.41
2022-11-13T01:47:05.583Z,96832.50
2022-11-13T01:49:55.314Z,96830.16
2022-11-13T01:52:42.619Z,96833.06
2022-11-13T01:55:28.173Z,96823.19
2022-11-13T01:58:16.307Z,96819.91
2022-11-13T02:01:02.158Z,96819.88
2022-11-13T02:03:47.604Z,96809.59
2022-11-13T02:06:40.215Z,96820.97
2022-11-13T02:09:30.151Z,96819.97
2022-11-13T02:12:21.117Z,96809.44
2022-11-13T02:15:08.060Z,96808.88
2022-11-13T02:17:56.613Z,96812.88
2022-11-13T02:21:01.785Z,96810.09
2022-11-13T02:23:50.441Z,96799.59
2022-11-13T02:26:37.571Z,96797.06
2022-11-13T02:29:23.468Z,96792.22
2022-11-13T02:35:08.799Z,96778.00
2022-11-13T02:38:00.983Z,96789.19
2022-11-13T02:40:46.409Z,96784.53
2022-11-13T02:43:31.926Z,96787.78
2022-11-13T02:46:17.527Z,96775.63
2022-11-13T02:49:03.869Z,96773.59
2022-11-13T02:51:49.301Z,96772.69
2022-11-13T02:54:35.118Z,96766.09
2022-11-13T02:57:20.838Z,96769.72
2022-11-13T03:00:12.401Z,96768.16
2022-11-13T03:02:59.776Z,96762.47
2022-11-13T03:05:48.916Z,96761.09
2022-11-13T03:08:35.688Z,96762.25
2022-11-13T03:11:21.778Z,96752.25
2022-11-13T03:14:07.696Z,96745.19
2022-11-13T03:16:53.418Z,96741.91
2022-11-13T03:19:39.079Z,96748.03
2022-11-13T03:22:24.876Z,96733.84
2022-11-13T03:25:11.194Z,96734.28
2022-11-13T03:27:57.147Z,96734.06
2022-11-13T03:30:42.740Z,96725.84
2022-11-13T03:33:28.548Z,96723.38
2022-11-13T03:36:14.053Z,96724.03
2022-11-13T03:38:59.655Z,96725.03
2022-11-13T03:41:45.560Z,96731.94
2022-11-13T03:44:31.238Z,96717.22
2022-11-13T03:47:16.699Z,96718.59
2022-11-13T03:50:02.407Z,96723.81
2022-11-13T03:52:47.788Z,96718.84
2022-11-13T03:55:33.533Z,96702.66
2022-11-13T03:58:19.604Z,96710.63
2022-11-13T04:01:05.081Z,96712.97
2022-11-13T04:03:50.656Z,96695.38
2022-11-13T04:06:36.667Z,96699.94
2022-11-13T04:09:22.488Z,96701.84
2022-11-13T04:12:08.091Z,96704.69
2022-11-13T04:14:53.944Z,96708.19
2022-11-13T04:17:40.146Z,96696.63
2022-11-13T04:20:27.727Z,96690.63
2022-11-13T04:23:15.842Z,96686.63
2022-11-13T04:26:01.550Z,96678.91
2022-11-13T04:28:47.210Z,96688.47
2022-11-13T04:31:33.004Z,96682.28
2022-11-13T04:34:18.845Z,96676.31
2022-11-13T04:37:04.682Z,96683.59
2022-11-13T04:39:50.327Z,96675.75
2022-11-13T04:42:51.276Z,96674.84
2022-11-13T04:45:37.002Z,96677.00
2022-11-13T04:48:22.538Z,96653.28
2022-11-13T04:51:08.538Z,96658.84
2022-11-13T04:53:54.272Z,96638.66
2022-11-13T04:56:39.992Z,96654.75
2022-11-13T04:59:25.808Z,96651.59
2022-11-13T05:02:11.843Z,96649.25
2022-11-13T05:05:00.521Z,96647.25
2022-11-13T05:07:48.970Z,96645.88
2022-11-13T05:10:34.852Z,96653.16
2022-11-13T05:13:20.520Z,96640.34
2022-11-13T05:16:09.491Z,96645.63
2022-11-13T05:18:55.140Z,96649.75
2022-11-13T05:21:40.778Z,96638.50
2022-11-13T05:24:27.065Z,96647.44
2022-11-13T05:27:17.022Z,96645.19
2022-11-13T05:30:03.536Z,96652.47
2022-11-13T05:32:48.935Z,96639.75
2022-11-13T05:35:34.865Z,96649.97
2022-11-13T05:38:20.478Z,96645.63
2022-11-13T05:41:15.212Z,96641.00
2022-11-13T05:44:00.780Z,96649.88
2022-11-13T05:46:46.568Z,96650.44
2022-11-13T05:49:32.228Z,96654.53
2022-11-13T05:52:18.068Z,96642.25
2022-11-13T05:55:05.210Z,96640.22
2022-11-13T05:57:50.887Z,96623.63
2022-11-13T06:00:36.580Z,96626.28
2022-11-13T06:03:22.354Z,96628.38
2022-11-13T06:06:11.434Z,96624.97
2022-11-13T06:08:58.522Z,96626.81
2022-11-13T06:11:44.516Z,96619.56
2022-11-13T06:14:30.116Z,96617.28
2022-11-13T06:17:15.857Z,96624.53
2022-11-13T06:20:01.453Z,96608.84
2022-11-13T06:22:47.014Z,96609.09
2022-11-13T06:25:32.843Z,96610.69
2022-11-13T06:28:18.629Z,96607.84
2022-11-13T06:31:05.419Z,96611.16
2022-11-13T06:33:51.463Z,96609.34
2022-11-13T06:36:37.904Z,96599.75
2022-11-13T06:39:23.575Z,96598.31
2022-11-13T06:42:09.247Z,96590.84
2022-11-13T06:44:54.940Z,96590.28
2022-11-13T06:47:40.975Z,96593.56
2022-11-13T06:50:26.577Z,96593.91
2022-11-13T06:53:12.613Z,96587.31
2022-11-13T06:55:58.932Z,96596.03
2022-11-13T06:58:44.943Z,96586.22
2022-11-13T07:01:30.697Z,96592.56
2022-11-13T07:04:16.575Z,96587.44
2022-11-13T07:07:02.252Z,96585.84
2022-11-13T07:09:48.041Z,96591.31
2022-11-13T07:12:33.774Z,96583.66
2022-11-13T07:15:19.637Z,96582.78
2022-11-13T07:18:07.094Z,96586.41
2022-11-13T07:20:52.619Z,96588.88
2022-11-13T07:23:43.282Z,96587.72
2022-11-13T07:26:29.174Z,96587.72
2022-11-13T07:29:15.654Z,96569.09
2022-11-13T07:32:01.305Z,96575.78
2022-11-13T07:34:46.986Z,96577.75
2022-11-13T07:37:32.552Z,96574.84
2022-11-13T07:40:18.061Z,96565.16
2022-11-13T07:43:03.842Z,96552.25
2022-11-13T07:45:54.461Z,96548.47
2022-11-13T07:48:40.322Z,96564.81
2022-11-13T07:51:25.976Z,96547.72
2022-11-13T07:54:11.657Z,96550.88
2022-11-13T07:56:57.429Z,96544.53
2022-11-13T07:59:43.064Z,96537.44
2022-11-13T08:02:28.975Z,96535.53
2022-11-13T08:05:15.599Z,96547.00
2022-11-13T08:08:01.447Z,96537.28
2022-11-13T08:10:46.848Z,96545.97
2022-11-13T08:13:34.079Z,96539.66
2022-11-13T08:16:19.846Z,96531.41
2022-11-13T08:19:05.496Z,96542.25
2022-11-13T08:21:51.242Z,96532.59
2022-11-13T08:24:36.987Z,96532.03
2022-11-13T08:27:23.480Z,96529.03
2022-11-13T08:30:09.782Z,96530.13
2022-11-13T08:32:55.389Z,96532.88
2022-11-13T08:35:40.750Z,96529.84
2022-11-13T08:38:26.995Z,96535.13
2022-11-13T08:41:12.745Z,96524.25
2022-11-13T08:43:58.653Z,96528.88
2022-11-13T08:46:44.501Z,96522.09
2022-11-13T08:49:30.266Z,96521.69
2022-11-13T08:52:16.106Z,96525.06
2022-11-13T08:55:01.774Z,96512.03
2022-11-13T08:57:47.379Z,96508.72
2022-11-13T09:00:33.458Z,96510.44
2022-11-13T09:03:19.006Z,96505.25
2022-11-13T09:06:08.799Z,96517.69
2022-11-13T09:08:54.279Z,96510.75
2022-11-13T09:11:41.248Z,96512.00
2022-11-13T09:14:28.097Z,96517.13
2022-11-13T09:17:13.909Z,96518.56
2022-11-13T09:20:03.696Z,96512.59
2022-11-13T09:23:06.469Z,96515.44
2022-11-13T09:25:52.434Z,96516.19
2022-11-13T09:28:38.235Z,96511.72
2022-11-13T09:31:23.978Z,96514.97
2022-11-13T09:34:10.067Z,96506.22
2022-11-13T09:36:55.672Z,96497.91
2022-11-13T09:39:41.908Z,96513.25
2022-11-13T09:42:29.488Z,96511.47
2022-11-13T09:45:16.516Z,96512.00
2022-11-13T09:48:12.540Z,96512.81
2022-11-13T09:51:01.518Z,96500.25
2022-11-13T09:53:48.380Z,96498.59
2022-11-13T09:56:40.118Z,96506.44
2022-11-13T09:59:32.736Z,96509.59
2022-11-13T10:02:32.399Z,96503.69
2022-11-13T10:05:48.868Z,96505.88
2022-11-13T10:08:55.755Z,96499.56
2022-11-13T10:11:59.008Z,96502.94
2022-11-13T10:14:48.915Z,96497.44
2022-11-13T10:17:50.798Z,96495.84
2022-11-13T10:20:48.453Z,96482.59
2022-11-13T10:23:38.312Z,96473.81
2022-11-13T10:26:27.177Z,96490.34
2022-11-13T10:29:18.969Z,96488.13
2022-11-13T10:32:22.040Z,96476.75
2022-11-13T10:35:23.306Z,96472.50
2022-11-13T10:38:22.023Z,96474.78
2022-11-13T10:41:16.476Z,96462.66
2022-11-13T10:44:06.524Z,96466.06
2022-11-13T10:47:03.416Z,96460.56
2022-11-13T10:49:49.088Z,96455.56
2022-11-13T10:52:43.866Z,96452.13
2022-11-13T10:55:39.653Z,96448.06
2022-11-13T10:58:25.890Z,96439.47
2022-11-13T11:01:29.974Z,96427.63
2022-11-13T11:04:29.317Z,96430.00
2022-11-13T11:07:21.399Z,96431.13
2022-11-13T11:10:19.172Z,96417.00
2022-11-13T11:13:13.021Z,96423.69
2022-11-13T11:16:01.477Z,96402.53
2022-11-13T11:19:01.989Z,96398.66
2022-11-13T11:21:51.673Z,96392.38
2022-11-13T11:24:43.744Z,96382.94
2022-11-13T11:27:39.873Z,96373.09
2022-11-13T11:30:29.573Z,96375.88
2022-11-13T11:33:36.354Z,96371.19
2022-11-13T11:36:35.171Z,96366.47
2022-11-13T11:39:23.821Z,96354.66
2022-11-13T11:42:20.930Z,96362.13
2022-11-13T11:45:31.196Z,96355.47
2022-11-13T11:48:20.296Z,96350.72
2022-11-13T11:51:18.017Z,96343.63
2022-11-13T11:54:12.596Z,96341.25
2022-11-13T11:57:10.243Z,96341.22
2022-11-13T11:59:59.335Z,96341.75
2022-11-13T12:03:02.407Z,96339.19
2022-11-13T12:06:12.739Z,96337.16
2022-11-13T12:09:12.656Z,96335.13
2022-11-13T12:11:58.052Z,96322.06
2022-11-13T12:14:59.732Z,96328.81
2022-11-13T12:18:04.869Z,96317.78
2022-11-13T12:21:19.093Z,96320.97
2022-11-13T12:24:22.836Z,96309.88
2022-11-13T12:27:31.883Z,96312.41
2022-11-13T12:30:21.196Z,96315.69
2022-11-13T12:33:47.271Z,96313.06
2022-11-13T12:36:33.668Z,96297.53
2022-11-13T12:39:32.021Z,96297.72
2022-11-13T12:42:31.531Z,96307.72
2022-11-13T12:45:30.966Z,96306.97
2022-11-13T12:48:16.344Z,96304.38
2022-11-13T12:51:13.327Z,96294.13
2022-11-13T12:53:58.755Z,96302.31
2022-11-13T12:56:44.678Z,96288.38
2022-11-13T12:59:40.046Z,96310.53
2022-11-13T13:03:01.658Z,96303.59
2022-11-13T13:06:12.267Z,96297.78
2022-11-13T13:09:22.543Z,96281.59
2022-11-13T13:12:14.267Z,96274.19
2022-11-13T13:15:24.158Z,96272.66
2022-11-13T13:18:17.518Z,96260.53
2022-11-13T13:21:12.180Z,96274.00
2022-11-13T13:24:08.334Z,96255.22
2022-11-13T13:26:54.334Z,96257.50
2022-11-13T13:29:40.979Z,96264.44
2022-11-13T13:32:43.022Z,96253.34
2022-11-13T13:35:44.173Z,96244.75
2022-11-13T13:38:55.701Z,96245.47
2022-11-13T13:42:06.465Z,96241.19
2022-11-13T13:45:13.083Z,96233.81
2022-11-13T13:48:00.326Z,96226.31
2022-11-13T13:50:48.329Z,96223.88
2022-11-13T13:53:36.196Z,96223.72
2022-11-13T13:56:23.192Z,96217.09
2022-11-13T13:59:27.812Z,96220.44
2022-11-13T14:02:20.585Z,96224.34
2022-11-13T14:05:25.292Z,96225.44
2022-11-13T14:08:18.903Z,96215.63
2022-11-13T14:11:26.835Z,96224.00
2022-11-13T14:14:19.569Z,96221.38
2022-11-13T14:17:05.721Z,96217.50
2022-11-13T14:20:00.785Z,96212.16
2022-11-13T14:22:55.185Z,96196.78
2022-11-13T14:25:44.123Z,96193.25
2022-11-13T14:28:32.638Z,96191.53
2022-11-13T14:31:18.549Z,96198.19
2022-11-13T14:34:20.189Z,96185.03
2022-11-13T14:37:14.421Z,96191.44
2022-11-13T14:40:04.944Z,96188.44
2022-11-13T14:42:57.596Z,96183.44
2022-11-13T14:45:56.930Z,96174.84
2022-11-13T14:48:53.734Z,96177.19
2022-11-13T14:51:39.686Z,96176.09
2022-11-13T14:55:08.024Z,96174.72
2022-11-13T14:57:49.478Z,96174.91
2022-11-13T15:00:36.748Z,96165.63
2022-11-13T15:03:22.364Z,96166.75
2022-11-13T15:06:21.630Z,96164.69
2022-11-13T15:09:14.760Z,96153.59
2022-11-13T15:12:00.347Z,96155.50
2022-11-13T15:14:46.197Z,96151.22
2022-11-13T15:17:32.722Z,96155.38
2022-11-13T15:20:23.709Z,96154.72
2022-11-13T15:23:12.399Z,96150.75
2022-11-13T15:25:58.256Z,96147.56
2022-11-13T15:28:44.025Z,96146.72
2022-11-13T15:31:34.823Z,96138.41
2022-11-13T15:34:20.519Z,96126.28
2022-11-13T15:37:17.213Z,96119.47
2022-11-13T15:40:02.808Z,96097.00
2022-11-13T15:42:48.684Z,96115.19
2022-11-13T15:45:34.306Z,96117.47
2022-11-13T15:48:19.848Z,96119.97
2022-11-13T15:51:05.997Z,96101.97
2022-11-13T15:54:00.486Z,96099.50
2022-11-13T15:56:47.045Z,96098.69
2022-11-13T15:59:32.800Z,96101.84
2022-11-13T16:02:18.787Z,96099.91
2022-11-13T16:05:04.279Z,96087.69
2022-11-13T16:07:50.059Z,96082.25
2022-11-13T16:10:35.829Z,96090.84
2022-11-13T16:13:21.707Z,96073.59
2022-11-13T16:16:14.219Z,96067.38
2022-11-13T16:19:01.712Z,96071.19
2022-11-13T16:21:47.314Z,96073.94
2022-11-13T16:24:33.152Z,96064.81
2022-11-13T16:27:27.349Z,96074.97
2022-11-13T16:30:20.016Z,96062.03
2022-11-13T16:33:11.824Z,96067.00
2022-11-13T16:35:57.317Z,96062.59
2022-11-13T16:38:43.191Z,96059.03
2022-11-13T16:41:30.951Z,96056.59
2022-11-13T16:44:16.437Z,96057.91
2022-11-13T16:47:02.091Z,96061.59
2022-11-13T16:49:48.408Z,96062.81
2022-11-13T16:52:34.156Z,96066.34
2022-11-13T16:55:20.005Z,96047.91
2022-11-13T16:58:05.857Z,96053.00
2022-11-13T17:00:53.921Z,96051.63
2022-11-13T17:03:42.155Z,96052.50
2022-11-13T17:06:30.663Z,96055.94
2022-11-13T17:09:16.062Z,96044.59
2022-11-13T17:12:01.750Z,96043.28
2022-11-13T17:14:47.963Z,96048.28
2022-11-13T17:17:33.385Z,96045.25
2022-11-13T17:20:20.417Z,96049.09
2022-11-13T17:23:05.850Z,96049.16
2022-11-13T17:25:51.366Z,96048.75
2022-11-13T17:28:37.522Z,96054.75
2022-11-13T17:31:23.124Z,96046.84
2022-11-13T17:34:08.735Z,96034.59
2022-11-13T17:36:54.825Z,96045.13
2022-11-13T17:39:40.468Z,96039.47
2022-11-13T17:42:28.453Z,96036.63
2022-11-13T17:45:14.211Z,96056.66
2022-11-13T17:47:59.828Z,96029.75
2022-11-13T17:50:55.908Z,96046.19
2022-11-13T17:53:41.644Z,96050.81
2022-11-13T17:56:27.224Z,96036.00
2022-11-13T17:59:13.047Z,96030.84
2022-11-13T18:01:58.807Z,96045.78
2022-11-13T18:04:44.704Z,96030.38
2022-11-13T18:07:30.779Z,96040.66
2022-11-13T18:10:16.771Z,96046.41
2022-11-13T18:13:02.266Z,96051.47
2022-11-13T18:15:47.995Z,96034.06
2022-11-13T18:18:34.355Z,96041.34
2022-11-13T18:21:26.112Z,96036.59
2022-11-13T18:24:17.948Z,96046.81
2022-11-13T18:27:05.849Z,96047.47
2022-11-13T18:29:51.139Z,96050.53
2022-11-13T18:32:36.997Z,96042.75
2022-11-13T18:35:22.614Z,96051.25
2022-11-13T18:38:08.370Z,96039.19
2022-11-13T18:41:07.649Z,96029.56
2022-11-13T18:43:53.513Z,96026.47
2022-11-13T18:46:39.419Z,96016.47
2022-11-13T18:49:25.068Z,96028.81
2022-11-13T18:52:10.855Z,96026.97
2022-11-13T18:54:56.605Z,96008.31
2022-11-13T18:57:42.407Z,96016.69
2022-11-13T19:00:28.154Z,96004.03
2022-11-13T19:03:13.691Z,95999.56
2022-11-13T19:05:59.334Z,95992.47
2022-11-13T19:08:45.579Z,95985.53
2022-11-13T19:11:32.128Z,95985.03
2022-11-13T19:14:19.018Z,96000.88
2022-11-13T19:17:04.762Z,95976.75
2022-11-13T19:19:50.518Z,95989.03
2022-11-13T19:22:36.219Z,95978.41
2022-11-13T19:25:21.881Z,95985.88
2022-11-13T19:28:07.598Z,95982.81
2022-11-13T19:30:56.183Z,95985.63
2022-11-13T19:33:41.762Z,95990.50
2022-11-13T19:36:29.963Z,95985.03
2022-11-13T19:39:16.737Z,95995.41
2022-11-13T19:42:02.306Z,95996.06
2022-11-13T19:44:48.161Z,95998.56
2022-11-13T19:47:34.075Z,95998.50
2022-11-13T19:50:19.661Z,96000.41
2022-11-13T19:53:05.594Z,95999.28
2022-11-13T19:55:55.185Z,95993.84
2022-11-13T19:58:45.998Z,95994.94
2022-11-13T20:01:32.745Z,95996.09
2022-11-13T20:04:18.737Z,95992.34
2022-11-13T20:07:04.479Z,95987.66
2022-11-13T20:09:50.156Z,95982.19
2022-11-13T20:12:36.016Z,95981.69
2022-11-13T20:15:21.738Z,95978.63
2022-11-13T20:18:07.549Z,95978.41
2022-11-13T20:20:55.119Z,95978.25
2022-11-13T20:23:40.843Z,95985.13
2022-11-13T20:26:27.451Z,95977.97
2022-11-13T20:29:13.226Z,95979.75
2022-11-13T20:32:01.969Z,95982.03
2022-11-13T20:34:47.347Z,95976.09
2022-11-13T20:37:33.718Z,95982.13
2022-11-13T20:40:20.219Z,95977.41
2022-11-13T20:43:06.425Z,95973.50
2022-11-13T20:46:01.683Z,95976.72
2022-11-13T20:48:48.293Z,95976.69
2022-11-13T20:51:34.048Z,95978.88
2022-11-13T20:54:19.544Z,95978.81
2022-11-13T20:57:05.480Z,95975.41
2022-11-13T20:59:51.120Z,95974.25
2022-11-13T21:02:36.788Z,95979.59
2022-11-13T21:05:22.250Z,95975.78
2022-11-13T21:08:11.268Z,95973.44
2022-11-13T21:11:03.039Z,95970.69
2022-11-13T21:13:49.660Z,95968.31
2022-11-13T21:16:35.228Z,95966.41
2022-11-13T21:19:22.321Z,95952.00
2022-11-13T21:22:07.812Z,95958.59
2022-11-13T21:24:53.249Z,95949.16
2022-11-13T21:27:39.091Z,95958.06
2022-11-13T21:30:24.868Z,95951.91
2022-11-13T21:33:10.641Z,95956.25
2022-11-13T21:35:56.387Z,95939.63
2022-11-13T21:38:42.568Z,95952.63
2022-11-13T21:41:28.307Z,95949.00
2022-11-13T21:44:14.557Z,95945.34
2022-11-13T21:47:00.636Z,95934.63
2022-11-13T21:49:46.807Z,95936.50
2022-11-13T21:52:32.854Z,95930.28
2022-11-13T21:55:18.518Z,95931.75
2022-11-13T21:58:04.493Z,95929.84
2022-11-13T22:00:50.425Z,95923.06
2022-11-13T22:03:36.577Z,95920.78
2022-11-13T22:06:31.619Z,95916.00
2022-11-13T22:09:21.379Z,95913.03
2022-11-13T22:12:07.229Z,95907.22
2022-11-13T22:14:52.948Z,95910.84
2022-11-13T22:17:41.062Z,95896.84
2022-11-13T22:20:26.778Z,95908.13
2022-11-13T22:23:12.413Z,95906.69
2022-11-13T22:26:20.747Z,95906.72
2022-11-13T22:29:07.257Z,95904.72
2022-11-13T22:31:53.191Z,95907.56
2022-11-13T22:34:56.795Z,95902.16
2022-11-13T22:38:55.345Z,95896.84
2022-11-13T22:42:00.342Z,95895.34
2022-11-13T22:45:22.442Z,95893.66
2022-11-13T22:48:28.808Z,95891.97
2022-11-13T22:51:37.925Z,95892.19
2022-11-13T22:54:43.099Z,95892.19
2022-11-13T22:57:48.247Z,95888.91
2022-11-13T23:00:53.289Z,95887.03
2022-11-13T23:04:00.945Z,95869.69
2022-11-13T23:07:06.241Z,95862.63
2022-11-13T23:10:11.709Z,95863.38
2022-11-13T23:13:16.947Z,95854.66
2022-11-13T23:16:23.918Z,95855.13
2022-11-13T23:19:28.835Z,95837.75
2022-11-13T23:22:33.891Z,95835.94
2022-11-13T23:25:38.964Z,95832.41
2022-11-13T23:28:44.015Z,95835.94
2022-11-13T23:31:49.015Z,95833.44
2022-11-13T23:34:59.112Z,95836.28
2022-11-13T23:38:05.075Z,95817.41
2022-11-13T23:41:11.064Z,95830.34
2022-11-13T23:44:16.062Z,95821.38
2022-11-13T23:47:21.309Z,95823.03
2022-11-13T23:50:26.791Z,95817.75
2022-11-13T23:53:31.819Z,95807.81
2022-11-13T23:56:36.926Z,95804.19
2022-11-13T23:59:41.825Z,95799.69
